createdAt,value
2022-09-20T00:00:28.135Z,33.82
2022-09-20T00:01:32.683Z,33.90
2022-09-20T00:02:34.381Z,33.90
2022-09-20T00:03:37.993Z,33.78
2022-09-20T00:04:39.618Z,33.79
2022-09-20T00:05:42.825Z,33.69
2022-09-20T00:06:44.308Z,33.79
2022-09-20T00:07:46.217Z,33.83
2022-09-20T00:08:48.718Z,33.84
2022-09-20T00:09:50.249Z,33.71
2022-09-20T00:10:53.518Z,33.62
2022-09-20T00:11:55.038Z,33.92
2022-09-20T00:12:57.149Z,33.85
2022-09-20T00:14:00.744Z,33.64
2022-09-20T00:15:02.328Z,33.67
2022-09-20T00:16:09.424Z,33.64
2022-09-20T00:17:10.975Z,33.94
2022-09-20T00:18:13.325Z,33.73
2022-09-20T00:19:21.527Z,33.61
2022-09-20T00:20:23.776Z,33.67
2022-09-20T00:21:28.345Z,33.61
2022-09-20T00:22:30.274Z,33.78
2022-09-20T00:23:32.782Z,33.83
2022-09-20T00:24:36.567Z,33.79
2022-09-20T00:25:38.085Z,33.71
2022-09-20T00:26:40.679Z,33.81
2022-09-20T00:27:42.407Z,33.73
2022-09-20T00:28:44.283Z,33.87
2022-09-20T00:29:45.931Z,33.98
2022-09-20T00:30:49.221Z,33.74
2022-09-20T00:31:50.833Z,33.71
2022-09-20T00:32:52.401Z,33.71
2022-09-20T00:34:14.057Z,33.82
2022-09-20T00:35:16.046Z,33.64
2022-09-20T00:36:17.588Z,33.77
2022-09-20T00:37:19.145Z,33.94
2022-09-20T00:38:20.664Z,33.52
2022-09-20T00:39:22.209Z,33.68
2022-09-20T00:40:27.058Z,33.59
2022-09-20T00:41:30.478Z,33.56
2022-09-20T00:42:32.361Z,33.64
2022-09-20T00:43:42.560Z,33.58
2022-09-20T00:44:58.203Z,33.55
2022-09-20T00:46:01.378Z,33.63
2022-09-20T00:47:03.969Z,33.60
2022-09-20T00:48:14.002Z,33.83
2022-09-20T00:49:25.495Z,33.62
2022-09-20T00:50:29.988Z,33.55
2022-09-20T00:51:38.893Z,33.90
2022-09-20T00:52:43.927Z,33.67
2022-09-20T00:53:49.284Z,33.64
2022-09-20T00:54:51.034Z,33.52
2022-09-20T00:55:59.501Z,33.63
2022-09-20T00:57:01.184Z,33.61
2022-09-20T00:58:03.026Z,33.54
2022-09-20T00:59:16.480Z,33.54
2022-09-20T01:00:18.315Z,33.62
2022-09-20T01:01:19.995Z,33.57
2022-09-20T01:02:27.902Z,33.48
2022-09-20T01:03:32.086Z,33.72
2022-09-20T01:04:36.023Z,33.77
2022-09-20T01:05:39.239Z,33.65
2022-09-20T01:06:43.336Z,33.62
2022-09-20T01:07:48.284Z,33.65
2022-09-20T01:08:52.179Z,33.59
2022-09-20T01:09:53.726Z,33.78
2022-09-20T01:10:55.402Z,33.66
2022-09-20T01:11:58.352Z,33.47
2022-09-20T01:12:59.860Z,33.70
2022-09-20T01:14:01.803Z,33.68
2022-09-20T01:15:05.872Z,33.77
2022-09-20T01:16:09.109Z,33.73
2022-09-20T01:17:11.624Z,33.67
2022-09-20T01:18:14.242Z,33.68
2022-09-20T01:19:29.463Z,33.77
2022-09-20T01:20:34.929Z,33.65
2022-09-20T01:21:36.726Z,33.70
2022-09-20T01:22:54.027Z,33.56
2022-09-20T01:24:22.395Z,33.47
2022-09-20T01:25:26.631Z,33.48
2022-09-20T01:26:58.148Z,33.56
2022-09-20T01:27:59.855Z,33.65
2022-09-20T01:29:13.347Z,33.60
2022-09-20T01:30:24.483Z,33.56
2022-09-20T01:31:34.850Z,33.52
2022-09-20T01:32:56.693Z,33.72
2022-09-20T01:34:24.058Z,33.68
2022-09-20T01:35:28.758Z,33.40
2022-09-20T01:36:38.301Z,33.45
2022-09-20T01:38:00.795Z,33.44
2022-09-20T01:39:20.808Z,33.55
2022-09-20T01:40:39.752Z,33.55
2022-09-20T01:41:50.858Z,33.56
2022-09-20T01:43:07.470Z,33.50
2022-09-20T01:44:22.160Z,33.42
2022-09-20T01:45:32.957Z,33.59
2022-09-20T01:46:36.663Z,33.65
2022-09-20T01:47:55.724Z,33.70
2022-09-20T01:49:33.984Z,33.60
2022-09-20T01:50:58.612Z,33.40
2022-09-20T01:52:33.078Z,33.71
2022-09-20T01:54:42.390Z,33.69
2022-09-20T01:56:21.380Z,33.59
2022-09-20T01:57:43.813Z,33.61
2022-09-20T01:59:22.593Z,33.77
2022-09-20T02:01:04.046Z,33.60
2022-09-20T02:02:27.492Z,33.62
2022-09-20T02:03:54.271Z,33.71
2022-09-20T02:05:15.381Z,33.57
2022-09-20T02:06:21.595Z,33.39
2022-09-20T02:07:44.353Z,33.44
2022-09-20T02:08:54.806Z,33.60
2022-09-20T02:10:19.378Z,33.58
2022-09-20T02:11:37.952Z,33.49
2022-09-20T02:13:04.273Z,33.71
2022-09-20T02:14:30.757Z,33.60
2022-09-20T02:15:38.231Z,33.68
2022-09-20T02:16:48.881Z,33.44
2022-09-20T02:18:02.499Z,33.70
2022-09-20T02:19:42.626Z,33.63
2022-09-20T02:21:03.519Z,33.44
2022-09-20T02:22:17.106Z,33.41
2022-09-20T02:23:43.252Z,33.74
2022-09-20T02:24:56.764Z,33.56
2022-09-20T02:26:22.466Z,33.58
2022-09-20T02:27:36.318Z,33.32
2022-09-20T02:29:12.888Z,33.60
2022-09-20T02:30:38.926Z,33.51
2022-09-20T02:31:46.481Z,33.38
2022-09-20T02:33:18.767Z,33.44
2022-09-20T02:34:48.150Z,33.70
2022-09-20T02:36:08.636Z,33.79
2022-09-20T02:37:51.986Z,33.56
2022-09-20T02:39:11.710Z,33.39
2022-09-20T02:40:20.106Z,33.54
2022-09-20T02:41:42.025Z,33.51
2022-09-20T02:42:46.724Z,33.45
2022-09-20T02:44:02.261Z,33.36
2022-09-20T02:45:21.421Z,33.51
2022-09-20T02:46:30.521Z,33.50
2022-09-20T02:47:37.232Z,33.56
2022-09-20T02:48:48.715Z,33.23
2022-09-20T02:49:59.188Z,33.37
2022-09-20T02:51:17.749Z,33.55
2022-09-20T02:52:28.312Z,33.42
2022-09-20T02:54:12.939Z,33.42
2022-09-20T02:55:26.212Z,33.32
2022-09-20T02:56:51.245Z,33.26
2022-09-20T02:58:26.649Z,33.65
2022-09-20T02:59:33.555Z,33.37
2022-09-20T03:00:59.876Z,33.42
2022-09-20T03:02:25.073Z,33.48
2022-09-20T03:03:40.961Z,33.31
2022-09-20T03:04:57.439Z,33.56
2022-09-20T03:06:06.202Z,33.46
2022-09-20T03:07:32.280Z,33.40
2022-09-20T03:08:44.532Z,33.34
2022-09-20T03:10:00.276Z,33.57
2022-09-20T03:11:17.292Z,33.34
2022-09-20T03:12:30.562Z,33.42
2022-09-20T03:14:09.420Z,33.36
2022-09-20T03:15:29.636Z,33.37
2022-09-20T03:16:57.823Z,33.61
2022-09-20T03:18:11.041Z,33.57
2022-09-20T03:19:22.084Z,33.43
2022-09-20T03:20:26.545Z,33.54
2022-09-20T03:21:50.933Z,33.42
2022-09-20T03:23:22.410Z,33.28
2022-09-20T03:24:34.530Z,33.50
2022-09-20T03:25:51.412Z,33.41
2022-09-20T03:26:55.649Z,33.59
2022-09-20T03:28:23.740Z,33.41
2022-09-20T03:29:31.200Z,33.30
2022-09-20T03:30:41.791Z,33.57
2022-09-20T03:32:10.607Z,33.31
2022-09-20T03:33:30.121Z,33.30
2022-09-20T03:34:37.288Z,33.44
2022-09-20T03:36:08.372Z,33.52
2022-09-20T03:37:32.809Z,33.42
2022-09-20T03:38:59.174Z,33.23
2022-09-20T03:40:31.751Z,33.43
2022-09-20T03:41:57.044Z,33.22
2022-09-20T03:43:13.492Z,33.32
2022-09-20T03:44:50.486Z,33.25
2022-09-20T03:46:04.334Z,33.44
2022-09-20T03:47:14.834Z,33.39
2022-09-20T03:48:58.741Z,33.22
2022-09-20T03:50:15.469Z,33.38
2022-09-20T03:51:44.620Z,33.47
2022-09-20T03:53:10.163Z,33.30
2022-09-20T03:54:33.638Z,33.32
2022-09-20T03:56:09.261Z,33.54
2022-09-20T03:57:19.873Z,33.27
2022-09-20T03:58:36.638Z,33.41
2022-09-20T04:00:20.880Z,33.27
2022-09-20T04:01:25.239Z,33.36
2022-09-20T04:03:07.710Z,33.43
2022-09-20T04:04:34.395Z,33.44
2022-09-20T04:05:52.866Z,33.32
2022-09-20T04:07:00.272Z,33.31
2022-09-20T04:08:44.052Z,33.52
2022-09-20T04:10:10.293Z,33.46
2022-09-20T04:11:22.096Z,33.35
2022-09-20T04:12:29.748Z,33.32
2022-09-20T04:13:40.924Z,33.57
2022-09-20T04:15:05.180Z,33.31
2022-09-20T04:16:25.476Z,33.60
2022-09-20T04:17:51.695Z,33.56
2022-09-20T04:18:58.280Z,33.40
2022-09-20T04:20:02.650Z,33.19
2022-09-20T04:21:23.887Z,33.26
2022-09-20T04:22:28.832Z,33.41
2022-09-20T04:23:35.129Z,33.25
2022-09-20T04:24:55.518Z,33.30
2022-09-20T04:26:00.126Z,33.41
2022-09-20T04:27:43.832Z,33.60
2022-09-20T04:28:54.490Z,33.41
2022-09-20T04:30:02.225Z,33.27
2022-09-20T04:31:23.273Z,33.41
2022-09-20T04:32:35.624Z,33.25
2022-09-20T04:33:45.184Z,33.50
2022-09-20T04:35:13.784Z,33.29
2022-09-20T04:36:32.746Z,33.38
2022-09-20T04:37:38.426Z,33.42
2022-09-20T04:38:40.661Z,33.34
2022-09-20T04:39:49.338Z,33.33
2022-09-20T04:41:09.452Z,33.12
2022-09-20T04:42:35.451Z,33.06
2022-09-20T04:43:58.786Z,32.99
2022-09-20T04:45:39.187Z,32.92
2022-09-20T04:46:46.503Z,32.69
2022-09-20T04:48:43.531Z,32.81
2022-09-20T04:50:26.851Z,32.48
2022-09-20T04:52:09.539Z,32.45
2022-09-20T04:53:40.573Z,32.21
2022-09-20T04:55:29.707Z,32.16
2022-09-20T04:56:36.998Z,32.05
2022-09-20T04:58:16.334Z,32.05
2022-09-20T04:59:53.140Z,31.75
2022-09-20T05:00:57.755Z,31.65
2022-09-20T05:02:24.798Z,31.61
2022-09-20T05:04:40.667Z,31.63
2022-09-20T05:05:57.411Z,31.35
2022-09-20T05:07:13.944Z,31.11
2022-09-20T05:08:24.435Z,31.06
2022-09-20T05:09:50.930Z,30.85
2022-09-20T05:11:27.678Z,30.67
2022-09-20T05:13:15.905Z,30.52
2022-09-20T05:14:37.326Z,30.46
2022-09-20T05:15:55.146Z,30.30
2022-09-20T05:17:09.214Z,30.17
2022-09-20T05:18:45.488Z,29.94
2022-09-20T05:20:24.320Z,30.20
2022-09-20T05:21:47.942Z,29.81
2022-09-20T05:23:46.948Z,29.62
2022-09-20T05:24:59.960Z,29.34
2022-09-20T05:26:10.277Z,29.46
2022-09-20T05:27:30.103Z,29.46
2022-09-20T05:28:56.753Z,29.43
2022-09-20T05:30:04.832Z,29.21
2022-09-20T05:31:15.586Z,29.33
2022-09-20T05:32:29.313Z,29.34
2022-09-20T05:33:37.651Z,29.17
2022-09-20T05:35:03.995Z,29.33
2022-09-20T05:36:13.145Z,29.78
2022-09-20T05:37:52.403Z,29.57
2022-09-20T05:39:03.565Z,29.45
2022-09-20T05:40:23.906Z,29.46
2022-09-20T05:41:42.401Z,29.59
2022-09-20T05:42:44.267Z,29.92
2022-09-20T05:43:51.043Z,29.75
2022-09-20T05:45:07.993Z,29.91
2022-09-20T05:46:12.280Z,29.61
2022-09-20T05:47:37.997Z,29.51
2022-09-20T05:49:11.246Z,30.00
2022-09-20T05:50:29.807Z,30.55
2022-09-20T05:51:40.520Z,30.99
2022-09-20T05:53:14.634Z,31.28
2022-09-20T05:54:54.725Z,31.63
2022-09-20T05:56:05.384Z,31.93
2022-09-20T05:57:25.407Z,32.09
2022-09-20T05:58:47.733Z,32.61
2022-09-20T06:00:16.049Z,32.93
2022-09-20T06:01:30.605Z,33.06
2022-09-20T06:02:40.227Z,33.38
2022-09-20T06:03:55.761Z,33.40
2022-09-20T06:05:12.630Z,33.73
2022-09-20T06:06:23.265Z,33.74
2022-09-20T06:07:28.105Z,33.91
2022-09-20T06:08:38.796Z,33.97
2022-09-20T06:09:42.941Z,34.11
2022-09-20T06:11:08.727Z,34.29
2022-09-20T06:12:26.114Z,34.64
2022-09-20T06:13:45.649Z,34.65
2022-09-20T06:15:17.162Z,34.67
2022-09-20T06:16:31.623Z,34.52
2022-09-20T06:17:48.639Z,34.66
2022-09-20T06:19:01.680Z,34.76
2022-09-20T06:20:25.278Z,34.86
2022-09-20T06:21:53.546Z,34.94
2022-09-20T06:22:58.262Z,34.94
2022-09-20T06:24:01.410Z,35.07
2022-09-20T06:25:08.663Z,35.10
2022-09-20T06:26:20.638Z,35.12
2022-09-20T06:27:28.376Z,35.25
2022-09-20T06:28:45.638Z,35.11
2022-09-20T06:29:53.502Z,35.33
2022-09-20T06:30:57.274Z,35.28
2022-09-20T06:31:58.999Z,35.31
2022-09-20T06:33:15.717Z,35.21
2022-09-20T06:34:17.248Z,35.07
2022-09-20T06:35:20.770Z,35.08
2022-09-20T06:36:50.215Z,35.28
2022-09-20T06:38:18.571Z,35.34
2022-09-20T06:39:53.711Z,35.29
2022-09-20T06:41:13.973Z,35.28
2022-09-20T06:42:15.670Z,35.24
2022-09-20T06:43:19.307Z,35.29
2022-09-20T06:44:20.903Z,35.38
2022-09-20T06:45:22.438Z,35.26
2022-09-20T06:46:24.684Z,35.09
2022-09-20T06:47:27.206Z,35.25
2022-09-20T06:48:31.543Z,35.26
2022-09-20T06:49:35.910Z,35.00
2022-09-20T06:50:37.452Z,35.11
2022-09-20T06:51:39.483Z,35.18
2022-09-20T06:52:42.216Z,35.06
2022-09-20T06:53:43.896Z,35.18
2022-09-20T06:54:47.250Z,35.18
2022-09-20T06:55:49.099Z,35.18
2022-09-20T06:56:51.544Z,35.12
2022-09-20T06:57:53.383Z,35.13
2022-09-20T06:58:55.070Z,35.01
2022-09-20T06:59:56.580Z,35.09
2022-09-20T07:00:58.157Z,35.10
2022-09-20T07:02:00.184Z,35.01
2022-09-20T07:03:01.741Z,34.98
2022-09-20T07:04:09.741Z,35.15
2022-09-20T07:05:15.710Z,35.27
2022-09-20T07:06:18.115Z,35.28
2022-09-20T07:07:19.726Z,35.10
2022-09-20T07:08:21.237Z,35.25
2022-09-20T07:09:22.793Z,35.20
2022-09-20T07:10:28.183Z,35.30
2022-09-20T07:11:29.877Z,35.23
2022-09-20T07:12:33.999Z,35.25
2022-09-20T07:13:36.654Z,35.38
2022-09-20T07:14:39.113Z,35.33
2022-09-20T07:15:40.962Z,35.57
2022-09-20T07:16:42.531Z,35.46
2022-09-20T07:17:45.327Z,35.21
2022-09-20T07:18:47.908Z,35.33
2022-09-20T07:19:49.465Z,35.48
2022-09-20T07:20:50.977Z,35.46
2022-09-20T07:21:52.502Z,35.55
2022-09-20T07:22:54.126Z,35.56
2022-09-20T07:23:55.746Z,35.66
2022-09-20T07:24:58.975Z,35.74
2022-09-20T07:26:01.084Z,35.74
2022-09-20T07:27:05.168Z,35.76
2022-09-20T07:28:07.087Z,35.63
2022-09-20T07:29:09.531Z,35.67
2022-09-20T07:30:12.598Z,35.82
2022-09-20T07:31:14.463Z,35.83
2022-09-20T07:32:17.199Z,35.73
2022-09-20T07:33:21.550Z,35.79
2022-09-20T07:34:23.275Z,35.74
2022-09-20T07:35:25.195Z,35.79
2022-09-20T07:36:26.788Z,35.89
2022-09-20T07:37:28.355Z,35.85
2022-09-20T07:38:29.894Z,35.74
2022-09-20T07:39:31.399Z,35.88
2022-09-20T07:40:32.987Z,35.95
2022-09-20T07:41:34.498Z,35.91
2022-09-20T07:42:36.064Z,35.89
2022-09-20T07:43:37.803Z,35.91
2022-09-20T07:44:42.366Z,35.98
2022-09-20T07:45:43.943Z,36.25
2022-09-20T07:46:46.108Z,36.76
2022-09-20T07:47:47.694Z,36.82
2022-09-20T07:48:49.274Z,37.14
2022-09-20T07:49:51.535Z,37.01
2022-09-20T07:51:08.454Z,37.17
2022-09-20T07:52:11.232Z,37.17
2022-09-20T07:53:12.795Z,37.33
2022-09-20T07:54:14.951Z,37.37
2022-09-20T07:55:16.927Z,37.12
2022-09-20T07:56:18.990Z,37.40
2022-09-20T07:57:20.547Z,37.20
2022-09-20T07:58:22.229Z,37.34
2022-09-20T07:59:24.434Z,37.43
2022-09-20T08:00:26.651Z,37.52
2022-09-20T08:01:28.289Z,37.55
2022-09-20T08:02:29.939Z,37.46
2022-09-20T08:03:33.676Z,37.33
2022-09-20T08:04:35.222Z,37.28
2022-09-20T08:05:36.781Z,37.38
2022-09-20T08:06:40.273Z,37.27
2022-09-20T08:07:41.814Z,37.16
2022-09-20T08:08:43.484Z,37.19
2022-09-20T08:09:45.031Z,37.06
2022-09-20T08:10:46.722Z,36.94
2022-09-20T08:11:48.635Z,36.86
2022-09-20T08:14:18.463Z,36.92
2022-09-20T08:15:20.164Z,36.91
2022-09-20T08:16:22.104Z,36.87
2022-09-20T08:17:23.664Z,36.88
2022-09-20T08:18:28.044Z,36.89
2022-09-20T08:19:30.394Z,37.04
2022-09-20T08:20:32.341Z,37.02
2022-09-20T08:21:35.516Z,37.04
2022-09-20T08:22:39.277Z,36.81
2022-09-20T08:23:43.486Z,36.91
2022-09-20T08:24:45.108Z,36.83
2022-09-20T08:25:48.310Z,36.84
2022-09-20T08:26:49.881Z,36.98
2022-09-20T08:27:54.558Z,36.95
2022-09-20T08:28:58.312Z,36.95
2022-09-20T08:30:01.115Z,36.84
2022-09-20T08:31:08.414Z,36.89
2022-09-20T08:32:10.340Z,36.88
2022-09-20T08:33:12.940Z,36.65
2022-09-20T08:34:17.028Z,36.72
2022-09-20T08:35:18.632Z,36.68
2022-09-20T08:36:25.557Z,36.87
2022-09-20T08:37:27.138Z,36.62
2022-09-20T08:39:59.379Z,36.74
2022-09-20T08:41:07.294Z,36.88
2022-09-20T08:42:24.157Z,36.86
2022-09-20T08:43:29.821Z,36.71
2022-09-20T08:44:35.681Z,36.87
2022-09-20T08:45:39.720Z,37.11
2022-09-20T08:46:51.825Z,37.35
2022-09-20T08:47:58.855Z,37.47
2022-09-20T08:49:03.232Z,37.77
2022-09-20T08:50:11.493Z,37.63
2022-09-20T08:51:22.691Z,37.71
2022-09-20T08:52:36.229Z,37.68
2022-09-20T08:53:49.131Z,37.70
2022-09-20T08:54:51.093Z,37.67
2022-09-20T08:55:52.598Z,37.79
2022-09-20T08:56:55.012Z,37.63
2022-09-20T08:57:58.121Z,37.67
2022-09-20T08:59:00.307Z,37.63
2022-09-20T09:00:04.326Z,37.53
2022-09-20T09:01:06.897Z,37.55
2022-09-20T09:02:17.710Z,37.60
2022-09-20T09:03:19.390Z,37.38
2022-09-20T09:04:23.912Z,37.42
2022-09-20T09:05:33.044Z,37.33
2022-09-20T09:06:34.662Z,37.45
2022-09-20T09:07:36.183Z,37.18
2022-09-20T09:08:39.205Z,37.27
2022-09-20T09:09:43.979Z,37.27
2022-09-20T09:10:52.588Z,37.04
2022-09-20T09:11:56.725Z,37.03
2022-09-20T09:12:59.565Z,36.99
2022-09-20T09:14:27.045Z,36.83
2022-09-20T09:15:33.736Z,36.64
2022-09-20T09:16:36.499Z,36.51
2022-09-20T09:17:38.140Z,36.23
2022-09-20T09:18:42.007Z,36.44
2022-09-20T09:19:56.295Z,36.28
2022-09-20T09:20:59.381Z,36.07
2022-09-20T09:22:03.236Z,35.91
2022-09-20T09:23:11.510Z,35.94
2022-09-20T09:24:19.284Z,35.65
2022-09-20T09:25:32.203Z,35.67
2022-09-20T09:26:43.368Z,35.33
2022-09-20T09:27:54.789Z,35.39
2022-09-20T09:29:22.066Z,35.27
2022-09-20T09:30:46.889Z,35.17
2022-09-20T09:31:51.785Z,34.94
2022-09-20T09:33:15.911Z,34.92
2022-09-20T09:34:28.935Z,35.10
2022-09-20T09:35:31.778Z,34.81
2022-09-20T09:36:43.354Z,34.92
2022-09-20T09:38:00.812Z,34.71
2022-09-20T09:39:22.426Z,34.77
2022-09-20T09:40:25.050Z,34.63
2022-09-20T09:41:31.625Z,34.49
2022-09-20T09:42:33.240Z,34.83
2022-09-20T09:43:37.474Z,34.98
2022-09-20T09:44:39.025Z,35.07
2022-09-20T09:45:40.607Z,35.21
2022-09-20T09:46:42.245Z,35.39
2022-09-20T09:47:44.240Z,35.68
2022-09-20T09:48:49.964Z,35.74
2022-09-20T09:50:02.610Z,35.73
2022-09-20T09:51:15.416Z,35.65
2022-09-20T09:52:24.645Z,35.59
2022-09-20T09:53:26.544Z,35.77
2022-09-20T09:54:50.681Z,35.80
2022-09-20T09:56:18.436Z,35.74
2022-09-20T09:57:33.078Z,35.76
2022-09-20T09:58:58.070Z,35.62
2022-09-20T10:00:22.034Z,35.96
2022-09-20T10:01:36.192Z,35.88
2022-09-20T10:02:46.913Z,35.85
2022-09-20T10:04:05.280Z,35.88
2022-09-20T10:05:23.118Z,35.89
2022-09-20T10:06:40.897Z,36.04
2022-09-20T10:07:54.553Z,36.00
2022-09-20T10:08:59.004Z,36.00
2022-09-20T10:10:21.477Z,35.87
2022-09-20T10:11:37.960Z,35.83
2022-09-20T10:13:16.719Z,35.83
2022-09-20T10:14:24.291Z,35.72
2022-09-20T10:16:07.752Z,35.76
2022-09-20T10:17:23.116Z,35.97
2022-09-20T10:19:03.060Z,35.62
2022-09-20T10:20:31.182Z,35.87
2022-09-20T10:22:07.321Z,35.85
2022-09-20T10:23:45.090Z,35.75
2022-09-20T10:24:42.494Z,35.77
2022-09-20T10:26:07.671Z,35.86
2022-09-20T10:27:23.207Z,35.84
2022-09-20T10:28:57.804Z,36.16
2022-09-20T10:30:07.493Z,35.80
2022-09-20T10:31:24.924Z,35.84
2022-09-20T10:32:31.540Z,35.81
2022-09-20T10:34:06.694Z,35.72
2022-09-20T10:35:24.924Z,35.78
2022-09-20T10:36:38.783Z,35.72
2022-09-20T10:38:05.791Z,35.74
2022-09-20T10:39:25.843Z,35.72
2022-09-20T10:41:10.926Z,35.79
2022-09-20T10:43:16.002Z,35.62
2022-09-20T10:44:32.675Z,35.35
2022-09-20T10:47:23.000Z,35.68
2022-09-20T10:48:32.702Z,35.63
2022-09-20T10:50:05.012Z,35.65
2022-09-20T10:51:47.187Z,35.57
2022-09-20T10:52:51.420Z,35.34
2022-09-20T10:54:11.523Z,35.48
2022-09-20T10:55:31.686Z,35.49
2022-09-20T10:56:36.167Z,35.64
2022-09-20T10:58:16.639Z,35.60
2022-09-20T10:59:19.075Z,35.56
2022-09-20T11:00:32.382Z,35.66
2022-09-20T11:01:48.918Z,35.59
2022-09-20T11:03:19.574Z,35.54
2022-09-20T11:04:42.835Z,35.44
2022-09-20T11:05:59.549Z,35.50
2022-09-20T11:07:15.091Z,35.48
2022-09-20T11:08:22.929Z,35.52
2022-09-20T11:09:30.062Z,35.54
2022-09-20T11:10:58.410Z,35.34
2022-09-20T11:12:42.575Z,35.39
2022-09-20T11:14:12.494Z,35.46
2022-09-20T11:15:29.894Z,35.46
2022-09-20T11:16:41.797Z,35.23
2022-09-20T11:17:51.734Z,35.43
2022-09-20T11:19:14.048Z,35.63
2022-09-20T11:20:22.463Z,35.42
2022-09-20T11:21:34.517Z,35.55
2022-09-20T11:22:50.488Z,35.63
2022-09-20T11:24:17.015Z,35.65
2022-09-20T11:25:29.863Z,35.57
2022-09-20T11:26:42.265Z,35.49
2022-09-20T11:28:20.809Z,35.54
2022-09-20T11:29:32.386Z,35.69
2022-09-20T11:30:39.140Z,35.73
2022-09-20T11:31:45.640Z,35.59
2022-09-20T11:33:01.943Z,35.49
2022-09-20T11:34:25.856Z,35.74
2022-09-20T11:35:34.929Z,35.59
2022-09-20T11:36:42.790Z,35.63
2022-09-20T11:37:55.160Z,35.53
2022-09-20T11:39:03.782Z,35.65
2022-09-20T11:40:26.766Z,35.71
2022-09-20T11:41:30.566Z,35.57
2022-09-20T11:42:36.432Z,35.58
2022-09-20T11:43:42.645Z,35.62
2022-09-20T11:44:44.331Z,35.83
2022-09-20T11:45:52.249Z,35.51
2022-09-20T11:47:03.083Z,35.56
2022-09-20T11:48:15.911Z,35.55
2022-09-20T11:49:24.035Z,35.39
2022-09-20T11:51:05.847Z,35.45
2022-09-20T11:52:35.125Z,35.42
2022-09-20T11:54:04.884Z,35.47
2022-09-20T11:55:24.921Z,35.60
2022-09-20T11:56:29.693Z,35.44
2022-09-20T11:57:31.462Z,35.44
2022-09-20T11:58:48.779Z,35.62
2022-09-20T11:59:55.800Z,35.59
2022-09-20T12:00:59.906Z,35.34
2022-09-20T12:02:05.130Z,35.41
2022-09-20T12:03:22.420Z,35.59
2022-09-20T12:04:32.841Z,35.25
2022-09-20T12:05:41.825Z,35.45
2022-09-20T12:06:43.830Z,35.48
2022-09-20T12:07:46.128Z,35.33
2022-09-20T12:08:51.052Z,35.58
2022-09-20T12:10:08.462Z,35.59
2022-09-20T12:11:15.284Z,35.52
2022-09-20T12:12:53.644Z,35.59
2022-09-20T12:14:06.048Z,35.35
2022-09-20T12:15:22.319Z,35.52
2022-09-20T12:16:48.219Z,35.54
2022-09-20T12:17:50.004Z,35.34
2022-09-20T12:18:54.568Z,35.61
2022-09-20T12:19:56.057Z,35.49
2022-09-20T12:20:57.570Z,35.50
2022-09-20T12:21:59.022Z,35.59
2022-09-20T12:23:41.277Z,35.65
2022-09-20T12:24:45.505Z,35.49
2022-09-20T12:26:08.517Z,35.54
2022-09-20T12:27:25.592Z,35.54
2022-09-20T12:28:42.070Z,35.42
2022-09-20T12:29:47.624Z,35.31
2022-09-20T12:31:26.136Z,35.45
2022-09-20T12:32:31.812Z,35.53
2022-09-20T12:33:59.280Z,35.63
2022-09-20T12:35:01.048Z,35.45
2022-09-20T12:36:15.978Z,35.55
2022-09-20T12:37:23.486Z,35.46
2022-09-20T12:38:33.203Z,35.56
2022-09-20T12:39:37.645Z,35.30
2022-09-20T12:41:26.056Z,35.27
2022-09-20T12:42:32.575Z,35.31
2022-09-20T12:43:38.649Z,35.26
2022-09-20T12:44:58.635Z,35.46
2022-09-20T12:46:05.440Z,35.32
2022-09-20T12:47:12.135Z,35.22
2022-09-20T12:48:19.846Z,35.35
2022-09-20T12:49:46.212Z,35.37
2022-09-20T12:51:25.847Z,35.47
2022-09-20T12:52:57.187Z,35.38
2022-09-20T12:54:02.623Z,35.55
2022-09-20T12:55:10.274Z,35.34
2022-09-20T12:56:21.713Z,35.44
2022-09-20T12:57:32.203Z,35.47
2022-09-20T12:58:39.769Z,35.25
2022-09-20T12:59:41.365Z,35.45
2022-09-20T13:00:59.305Z,35.27
2022-09-20T13:02:39.828Z,35.31
2022-09-20T13:03:44.682Z,35.36
2022-09-20T13:04:55.816Z,35.21
2022-09-20T13:06:11.145Z,35.35
2022-09-20T13:07:43.727Z,35.25
2022-09-20T13:09:13.234Z,35.23
2022-09-20T13:10:29.196Z,35.14
2022-09-20T13:11:54.454Z,35.21
2022-09-20T13:13:18.734Z,35.05
2022-09-20T13:14:41.651Z,35.13
2022-09-20T13:15:50.312Z,35.24
2022-09-20T13:17:07.147Z,35.26
2022-09-20T13:18:15.514Z,35.23
2022-09-20T13:19:46.562Z,35.46
2022-09-20T13:20:48.621Z,35.31
2022-09-20T13:21:55.846Z,35.01
2022-09-20T13:23:00.469Z,35.23
2022-09-20T13:24:03.501Z,35.13
2022-09-20T13:25:07.284Z,35.18
2022-09-20T13:26:12.105Z,34.97
2022-09-20T13:27:22.515Z,35.21
2022-09-20T13:28:31.365Z,35.29
2022-09-20T13:29:42.296Z,35.11
2022-09-20T13:30:43.860Z,35.13
2022-09-20T13:31:45.478Z,34.90
2022-09-20T13:32:47.771Z,35.03
2022-09-20T13:33:49.793Z,35.21
2022-09-20T13:35:24.678Z,35.25
2022-09-20T13:36:29.816Z,35.09
2022-09-20T13:37:32.362Z,34.93
2022-09-20T13:38:34.905Z,35.10
2022-09-20T13:39:37.287Z,35.04
2022-09-20T13:40:45.220Z,35.21
2022-09-20T13:41:47.109Z,35.08
2022-09-20T13:42:52.448Z,35.18
2022-09-20T13:43:54.087Z,35.03
2022-09-20T13:44:58.741Z,35.09
2022-09-20T13:46:25.020Z,35.10
2022-09-20T13:47:29.180Z,35.19
2022-09-20T13:48:30.769Z,34.94
2022-09-20T13:49:32.554Z,35.21
2022-09-20T13:50:41.999Z,35.03
2022-09-20T13:51:48.177Z,34.99
2022-09-20T13:52:52.829Z,35.03
2022-09-20T13:54:14.505Z,35.08
2022-09-20T13:55:39.068Z,35.29
2022-09-20T13:56:41.077Z,35.11
2022-09-20T13:57:42.643Z,35.20
2022-09-20T13:58:44.361Z,35.17
2022-09-20T13:59:46.908Z,35.22
2022-09-20T14:00:56.468Z,35.20
2022-09-20T14:01:58.977Z,35.17
2022-09-20T14:03:00.867Z,35.24
2022-09-20T14:04:09.173Z,35.12
2022-09-20T14:05:17.572Z,35.10
2022-09-20T14:06:28.184Z,35.16
2022-09-20T14:07:31.070Z,35.24
2022-09-20T14:08:40.797Z,35.26
2022-09-20T14:09:42.509Z,35.17
2022-09-20T14:10:45.275Z,35.26
2022-09-20T14:11:47.328Z,35.33
2022-09-20T14:12:49.624Z,35.18
2022-09-20T14:13:59.609Z,35.13
2022-09-20T14:15:08.506Z,35.09
2022-09-20T14:16:12.509Z,35.37
2022-09-20T14:17:19.080Z,35.32
2022-09-20T14:18:22.491Z,35.29
2022-09-20T14:19:33.114Z,35.41
2022-09-20T14:20:35.049Z,35.41
2022-09-20T14:21:37.549Z,35.32
2022-09-20T14:22:39.336Z,35.40
2022-09-20T14:24:02.176Z,35.51
2022-09-20T14:25:20.342Z,35.39
2022-09-20T14:26:24.097Z,35.33
2022-09-20T14:27:25.665Z,35.36
2022-09-20T14:28:29.025Z,35.34
2022-09-20T14:29:33.717Z,35.42
2022-09-20T14:30:36.920Z,35.34
2022-09-20T14:31:47.445Z,35.43
2022-09-20T14:32:54.425Z,35.47
2022-09-20T14:34:02.147Z,35.52
2022-09-20T14:35:06.280Z,35.40
2022-09-20T14:36:15.352Z,35.71
2022-09-20T14:37:24.507Z,35.59
2022-09-20T14:38:27.452Z,35.32
2022-09-20T14:39:29.072Z,35.49
2022-09-20T14:40:33.346Z,35.47
2022-09-20T14:41:38.695Z,35.73
2022-09-20T14:42:47.195Z,35.50
2022-09-20T14:43:55.463Z,35.47
2022-09-20T14:44:57.434Z,35.38
2022-09-20T19:43:06.543Z,31.20
2022-09-20T19:44:39.839Z,31.26
2022-09-20T19:46:01.199Z,30.81
2022-09-20T19:47:20.278Z,31.21
2022-09-20T19:48:47.790Z,30.71
2022-09-20T19:50:10.147Z,30.13
2022-09-20T19:51:12.736Z,30.68
2022-09-20T19:52:14.565Z,30.80
2022-09-20T19:53:18.026Z,30.68
2022-09-20T19:54:19.841Z,30.45
2022-09-20T19:55:22.185Z,30.55
2022-09-20T19:56:27.523Z,29.83
2022-09-20T19:57:57.707Z,29.92
2022-09-20T19:58:59.583Z,29.96
2022-09-20T20:00:02.225Z,30.45
2022-09-20T20:01:06.088Z,30.33
2022-09-20T20:02:09.999Z,31.05
2022-09-20T20:03:13.758Z,31.58
2022-09-20T20:49:17.042Z,30.59
2022-09-20T20:50:19.103Z,30.86
2022-09-20T20:51:22.504Z,30.50
2022-09-20T20:52:24.078Z,30.79
2022-09-20T20:53:28.977Z,30.94
2022-09-20T20:54:31.730Z,30.68
2022-09-20T20:55:33.845Z,30.65
2022-09-20T20:56:35.544Z,30.81
2022-09-20T20:57:38.041Z,30.58
2022-09-20T20:58:41.773Z,31.05
2022-09-20T20:59:43.268Z,30.97
2022-09-20T21:00:44.806Z,30.79
2022-09-20T21:01:46.589Z,30.60
2022-09-20T21:02:49.043Z,30.69
2022-09-20T21:03:52.514Z,30.87
2022-09-20T21:04:54.100Z,30.75
2022-09-20T21:05:55.619Z,30.58
2022-09-20T21:06:59.249Z,29.74
2022-09-20T21:08:01.233Z,31.04
2022-09-20T21:09:05.160Z,30.95
2022-09-20T21:10:08.216Z,31.22
2022-09-20T21:11:12.202Z,31.12
2022-09-20T21:12:14.736Z,31.33
2022-09-20T21:13:16.223Z,31.23
2022-09-20T21:14:17.753Z,31.51
2022-09-20T21:15:19.868Z,31.10
2022-09-20T21:16:24.503Z,31.38